»·PEaware :: LXJ465 KEGE-KSNA

LXJ465 :: KEGE-KSNA

FLIGHT INFORMATION

Flight Status: Arrived
Operator: Unknown
More flights by this operator :: More flights under this callsign
Pilot: Craig H. (6968)
Aircraft: CESSNA 550 CITATION 2/S2/BRAVO
(C550)
More flights by this aircraft type
Origin: KEGE Eagle Co Regl
United States
Destination: KSNA John Wayne-Orange Co
United States
More flights between these airports :: More routes between these airports
Route: +BEVVR1 SPRKT JNC HVE J60 BLD NATEE DSNEE4
File this flight plan on PilotEdge
Remarks:
Altitude:
(Current/Filed)
36,000ft
Speed:
(Current/Filed)
400kts
Departed: 26-Aug-19 10:44 AM
Arrived: 26-Aug-19 12:45 PM
Distance/Time
Traveled:
637nm/2:00
Distance/Time
To Go:
Arrived

Flight Plot

Page will automatically refresh every two minutes.

Flight plan parsing failed; only flown route is shown


Map Options




Map Legend


Flown Route
Filed Route
Departure Airport
Arrival Airport
Navaid (VOR, NDB)
Fix

Horizontal Profiles

Position Reports

Time Latitude Longitude Heading Altitude Ground
Speed
26-Aug-19 10:29 39.641251 -106.908320 262 6550ft 0kts
26-Aug-19 10:30 39.641251 -106.908320 262 6550ft 0kts
26-Aug-19 10:30 39.641251 -106.908320 262 6550ft 0kts
26-Aug-19 10:32 39.641251 -106.908320 262 6550ft 0kts
26-Aug-19 10:32 39.641251 -106.908320 262 6550ft 0kts
26-Aug-19 10:33 39.641251 -106.908320 262 6550ft 0kts
26-Aug-19 10:35 39.641251 -106.908320 262 6550ft 0kts
26-Aug-19 10:35 39.641251 -106.908320 262 6550ft 0kts
26-Aug-19 10:36 39.641251 -106.908320 262 6550ft 0kts
26-Aug-19 10:38 39.641251 -106.908320 262 6550ft 0kts
26-Aug-19 10:38 39.641250 -106.908322 262 6550ft 0kts
26-Aug-19 10:39 39.641688 -106.909090 314 6550ft 9kts
26-Aug-19 10:40 39.642824 -106.904853 84 6550ft 16kts
26-Aug-19 10:41 39.643350 -106.900291 55 6550ft 0kts
26-Aug-19 10:42 39.643611 -106.900107 5 6550ft 9kts
26-Aug-19 10:43 39.642464 -106.917329 253 7029ft 113kts
26-Aug-19 10:44 39.612452 -106.952915 218 8899ft 199kts
26-Aug-19 10:45 39.580594 -107.011643 266 11773ft 216kts
26-Aug-19 10:46 39.599742 -107.084954 311 14257ft 235kts
26-Aug-19 10:47 39.663859 -107.104310 9 16264ft 266kts
26-Aug-19 10:48 39.710225 -107.146063 251 18164ft 252kts
26-Aug-19 10:49 39.679036 -107.228532 243 19961ft 258kts
26-Aug-19 10:50 39.646488 -107.312830 243 21565ft 265kts
26-Aug-19 10:51 39.612943 -107.399347 243 23040ft 272kts
26-Aug-19 10:52 39.578698 -107.487449 243 24373ft 278kts
26-Aug-19 10:53 39.544976 -107.573987 243 26002ft 269kts
26-Aug-19 10:54 39.510404 -107.662398 242 27440ft 277kts
26-Aug-19 10:55 39.475063 -107.752552 242 28837ft 290kts
26-Aug-19 10:56 39.439536 -107.842876 242 30661ft 294kts
26-Aug-19 10:57 39.401708 -107.938726 242 32122ft 305kts
26-Aug-19 10:58 39.362686 -108.037371 242 33491ft 312kts
26-Aug-19 10:59 39.322883 -108.137584 242 34680ft 318kts
26-Aug-19 11:00 39.281879 -108.240537 242 35735ft 325kts
26-Aug-19 11:01 39.239566 -108.346396 242 36173ft 345kts
26-Aug-19 11:02 39.194065 -108.459780 242 36147ft 368kts
26-Aug-19 11:03 39.146013 -108.579077 242 36130ft 381kts
26-Aug-19 11:04 39.097330 -108.699549 242 36202ft 386kts
26-Aug-19 11:05 39.049587 -108.823802 246 36282ft 389kts
26-Aug-19 11:06 39.007318 -108.952414 246 36389ft 390kts
26-Aug-19 11:07 38.965179 -109.080723 246 36346ft 394kts
26-Aug-19 11:08 38.922264 -109.210749 246 36282ft 391kts
26-Aug-19 11:09 38.880007 -109.338342 246 36215ft 385kts
26-Aug-19 11:10 38.838274 -109.463556 246 36157ft 381kts
26-Aug-19 11:11 38.796584 -109.588375 246 36116ft 379kts
26-Aug-19 11:12 38.755015 -109.712048 246 36094ft 377kts
26-Aug-19 11:13 38.713437 -109.835246 246 36093ft 376kts
26-Aug-19 11:14 38.671919 -109.957837 246 36097ft 375kts
26-Aug-19 11:15 38.630268 -110.080263 246 36105ft 375kts
26-Aug-19 11:16 38.588936 -110.201253 246 36114ft 375kts
26-Aug-19 11:17 38.546846 -110.323981 246 36124ft 374kts
26-Aug-19 11:18 38.504876 -110.445693 246 36132ft 374kts
26-Aug-19 11:19 38.466451 -110.556884 246 36167ft 374kts
26-Aug-19 11:20 38.424318 -110.678164 245 36183ft 374kts
26-Aug-19 11:21 38.374800 -110.794555 240 36210ft 374kts
26-Aug-19 11:22 38.323762 -110.909344 240 36225ft 374kts
26-Aug-19 11:23 38.272560 -111.024212 240 36240ft 374kts
26-Aug-19 11:24 38.221037 -111.139281 240 36286ft 373kts
26-Aug-19 11:25 38.169612 -111.253729 240 36295ft 374kts
26-Aug-19 11:26 38.118029 -111.368174 240 36305ft 374kts
26-Aug-19 11:27 38.066227 -111.482633 240 36288ft 375kts
26-Aug-19 11:28 38.014281 -111.597060 240 36295ft 374kts
26-Aug-19 11:29 37.962293 -111.711099 239 36309ft 374kts
26-Aug-19 11:30 37.910050 -111.825356 239 36325ft 374kts
26-Aug-19 11:31 37.857810 -111.939207 239 36343ft 375kts
26-Aug-19 11:32 37.805425 -112.052912 239 36357ft 375kts
26-Aug-19 11:33 37.752778 -112.166842 239 36364ft 375kts
26-Aug-19 11:34 37.700123 -112.280376 239 36361ft 375kts
26-Aug-19 11:35 37.637423 -112.385106 231 36336ft 376kts
26-Aug-19 11:36 37.571787 -112.487858 231 36302ft 376kts
26-Aug-19 11:37 37.506259 -112.590267 231 36267ft 377kts
26-Aug-19 11:38 37.440218 -112.692801 231 36245ft 377kts
26-Aug-19 11:39 37.374220 -112.795133 231 36230ft 377kts
26-Aug-19 11:40 37.308266 -112.897062 231 36219ft 377kts
26-Aug-19 11:41 37.242226 -112.998951 231 36210ft 377kts
26-Aug-19 11:42 37.175896 -113.100815 231 36173ft 377kts
26-Aug-19 11:43 37.109603 -113.202273 231 36153ft 377kts
26-Aug-19 11:44 37.043377 -113.303427 231 36123ft 377kts
26-Aug-19 11:45 36.976792 -113.404773 231 36086ft 377kts
26-Aug-19 11:46 36.910320 -113.505658 231 36066ft 377kts
26-Aug-19 11:47 36.843657 -113.606512 231 36062ft 377kts
26-Aug-19 11:48 36.778239 -113.705193 230 36048ft 377kts
26-Aug-19 11:49 36.709921 -113.807908 230 36051ft 377kts
26-Aug-19 11:50 36.642889 -113.908453 230 36052ft 377kts
26-Aug-19 11:51 36.576022 -114.008415 230 36031ft 377kts
26-Aug-19 11:52 36.508973 -114.108352 230 36028ft 377kts
26-Aug-19 11:53 36.441804 -114.208169 230 36023ft 377kts
26-Aug-19 11:54 36.374515 -114.307867 230 36017ft 377kts
26-Aug-19 11:55 36.307301 -114.407164 230 36009ft 377kts
26-Aug-19 11:56 36.239777 -114.506627 230 36000ft 377kts
26-Aug-19 11:57 36.172205 -114.605866 230 35973ft 377kts
26-Aug-19 11:58 36.104598 -114.704862 230 35974ft 377kts
26-Aug-19 11:59 36.036870 -114.803717 230 35973ft 377kts
26-Aug-19 12:00 35.968222 -114.901306 228 35972ft 377kts
26-Aug-19 12:01 35.898068 -114.997225 228 35966ft 377kts
26-Aug-19 12:02 35.827696 -115.093149 228 35968ft 377kts
26-Aug-19 12:03 35.757282 -115.188823 228 35967ft 377kts
26-Aug-19 12:04 35.686932 -115.284180 228 35976ft 377kts
26-Aug-19 12:05 35.616414 -115.379488 228 35975ft 377kts
26-Aug-19 12:06 35.546054 -115.474327 228 35975ft 377kts
26-Aug-19 12:07 35.475013 -115.569811 228 35976ft 377kts
26-Aug-19 12:08 35.410336 -115.656507 227 35981ft 377kts
26-Aug-19 12:09 35.334908 -115.757348 227 35984ft 377kts
26-Aug-19 12:10 35.263929 -115.851942 227 35981ft 378kts
26-Aug-19 12:11 35.192060 -115.945237 226 35983ft 378kts
26-Aug-19 12:12 35.118991 -116.037408 226 35988ft 378kts
26-Aug-19 12:13 35.045799 -116.129498 226 35990ft 378kts
26-Aug-19 12:14 34.972812 -116.221010 226 36005ft 377kts
26-Aug-19 12:15 34.899587 -116.312765 226 36000ft 378kts
26-Aug-19 12:16 34.833353 -116.396679 227 35460ft 364kts
26-Aug-19 12:17 34.766369 -116.481916 227 34450ft 339kts
26-Aug-19 12:18 34.703401 -116.561861 226 33149ft 316kts
26-Aug-19 12:19 34.635539 -116.631306 220 31660ft 340kts
26-Aug-19 12:20 34.557773 -116.707349 219 29906ft 370kts
26-Aug-19 12:21 34.480693 -116.787061 224 27782ft 345kts
26-Aug-19 12:22 34.412469 -116.866179 224 24985ft 359kts
26-Aug-19 12:23 34.338971 -116.951272 224 23376ft 369kts
26-Aug-19 12:24 34.272311 -117.026982 216 20089ft 276kts
26-Aug-19 12:25 34.208371 -117.074095 197 16333ft 280kts
26-Aug-19 12:27 34.133617 -117.072953 180 13799ft 262kts
26-Aug-19 12:28 34.068567 -117.071469 207 13013ft 196kts
26-Aug-19 12:29 34.031433 -117.136403 235 12993ft 260kts
26-Aug-19 12:30 33.986042 -117.210327 230 12302ft 276kts
26-Aug-19 12:31 33.938881 -117.276750 230 10627ft 245kts
26-Aug-19 12:32 33.896378 -117.336852 230 9077ft 233kts
26-Aug-19 12:33 33.854482 -117.396022 230 8017ft 222kts
26-Aug-19 12:34 33.818255 -117.451270 243 8011ft 201kts
26-Aug-19 12:35 33.801274 -117.517184 272 7286ft 219kts
26-Aug-19 12:36 33.805880 -117.590965 272 6274ft 202kts
26-Aug-19 12:37 33.810279 -117.649314 273 5989ft 147kts
26-Aug-19 12:38 33.811330 -117.708963 264 5314ft 201kts
26-Aug-19 12:39 33.798359 -117.765207 235 4111ft 150kts
26-Aug-19 12:40 33.773137 -117.796957 221 3384ft 122kts
26-Aug-19 12:41 33.747906 -117.819855 218 2412ft 100kts
26-Aug-19 12:41 33.728542 -117.834225 213 1362ft 95kts
26-Aug-19 12:43 33.701487 -117.852316 212 638ft 97kts
26-Aug-19 12:44 33.679488 -117.866399 213 73ft 70kts
26-Aug-19 12:44 33.671597 -117.871442 207 61ft 20kts
26-Aug-19 12:46 33.668966 -117.871384 146 61ft 8kts
26-Aug-19 12:47 33.666107 -117.873305 140 61ft 3kts
26-Aug-19 12:47 33.666023 -117.873190 128 61ft 0kts

Navigation Log

Ident Type
Flight plan parsing failed, navigation log unavailable